createdAt,value
2022-12-18T00:00:07.381Z,100741.55
2022-12-18T00:03:01.989Z,100743.59
2022-12-18T00:05:30.257Z,100750.11
2022-12-18T00:07:58.279Z,100753.14
2022-12-18T00:10:26.297Z,100760.33
2022-12-18T00:12:54.362Z,100763.06
2022-12-18T00:15:22.384Z,100768.73
2022-12-18T00:17:50.374Z,100774.67
2022-12-18T00:20:22.917Z,100770.58
2022-12-18T00:22:50.938Z,100770.80
2022-12-18T00:25:19.267Z,100770.44
2022-12-18T00:27:47.334Z,100767.85
2022-12-18T00:30:16.059Z,100768.56
2022-12-18T00:32:44.116Z,100770.55
2022-12-18T00:35:12.393Z,100772.57
2022-12-18T00:37:40.452Z,100778.34
2022-12-18T00:40:09.411Z,100784.06
2022-12-18T00:42:57.023Z,100784.11
2022-12-18T00:45:30.937Z,100793.39
2022-12-18T00:47:59.192Z,100797.16
2022-12-18T00:50:27.834Z,100804.23
2022-12-18T00:52:55.838Z,100807.20
2022-12-18T00:55:24.070Z,100808.17
2022-12-18T00:57:53.588Z,100810.16
2022-12-18T01:00:22.183Z,100822.41
2022-12-18T01:02:50.840Z,100828.22
2022-12-18T01:05:19.754Z,100830.77
2022-12-18T01:07:47.896Z,100833.33
2022-12-18T01:10:16.283Z,100834.98
2022-12-18T01:12:44.366Z,100834.50
2022-12-18T01:15:14.412Z,100837.96
2022-12-18T01:17:42.689Z,100841.98
2022-12-18T01:20:14.013Z,100847.09
2022-12-18T01:22:42.084Z,100850.20
2022-12-18T01:25:10.270Z,100854.66
2022-12-18T01:27:38.343Z,100859.77
2022-12-18T01:30:07.460Z,100861.70
2022-12-18T01:32:35.508Z,100860.20
2022-12-18T01:35:04.748Z,100866.44
2022-12-18T01:37:32.838Z,100873.76
2022-12-18T01:40:00.901Z,100879.72
2022-12-18T01:42:28.973Z,100882.34
2022-12-18T01:45:05.356Z,100882.73
2022-12-18T01:47:33.377Z,100880.16
2022-12-18T01:50:11.934Z,100888.25
2022-12-18T01:52:43.725Z,100888.33
2022-12-18T01:55:13.642Z,100892.20
2022-12-18T01:57:42.526Z,100895.00
2022-12-18T02:00:16.652Z,100895.20
2022-12-18T02:02:46.206Z,100898.13
2022-12-18T02:05:24.664Z,100896.82
2022-12-18T02:08:11.752Z,100902.06
2022-12-18T02:11:01.322Z,100911.61
2022-12-18T02:13:36.476Z,100911.65
2022-12-18T02:16:25.707Z,100911.84
2022-12-18T02:19:00.392Z,100911.75
2022-12-18T02:22:11.722Z,100914.09
2022-12-18T02:24:49.629Z,100917.90
2022-12-18T02:27:19.572Z,100916.63
2022-12-18T02:29:57.854Z,100918.09
2022-12-18T02:32:31.869Z,100921.89
2022-12-18T02:35:02.925Z,100922.80
2022-12-18T02:37:33.546Z,100924.20
2022-12-18T02:40:05.709Z,100930.04
2022-12-18T02:42:34.421Z,100933.35
2022-12-18T02:45:02.965Z,100933.73
2022-12-18T02:47:35.504Z,100928.63
2022-12-18T02:50:19.314Z,100927.95
2022-12-18T02:53:17.670Z,100924.48
2022-12-18T02:56:16.857Z,100923.81
2022-12-18T02:59:06.900Z,100925.52
2022-12-18T03:01:55.219Z,100928.55
2022-12-18T03:04:40.822Z,100933.58
2022-12-18T03:07:16.686Z,100941.45
2022-12-18T03:09:50.491Z,100945.73
2022-12-18T03:12:23.994Z,100946.77
2022-12-18T03:15:17.845Z,100947.96
2022-12-18T03:17:53.083Z,100956.63
2022-12-18T03:20:23.610Z,100957.25
2022-12-18T03:22:58.661Z,100967.21
2022-12-18T03:25:29.049Z,100965.87
2022-12-18T03:27:59.858Z,100963.48
2022-12-18T03:30:30.924Z,100972.54
2022-12-18T03:33:25.147Z,100973.53
2022-12-18T03:35:56.285Z,100978.95
2022-12-18T03:38:24.804Z,100980.27
2022-12-18T03:41:01.414Z,100985.59
2022-12-18T03:43:56.402Z,100987.41
2022-12-18T03:46:39.805Z,100989.16
2022-12-18T03:49:30.688Z,100994.98
2022-12-18T03:52:27.211Z,100999.84
2022-12-18T03:54:59.183Z,100995.66
2022-12-18T03:57:31.344Z,101002.84
2022-12-18T04:00:13.039Z,101007.21
2022-12-18T04:02:56.784Z,101010.10
2022-12-18T04:05:34.440Z,101012.83
2022-12-18T04:08:03.674Z,101014.73
2022-12-18T04:10:32.364Z,101016.80
2022-12-18T04:13:03.919Z,101020.65
2022-12-18T04:15:36.029Z,101018.98
2022-12-18T04:18:04.949Z,101020.65
2022-12-18T04:20:39.152Z,101018.51
2022-12-18T04:23:07.194Z,101017.08
2022-12-18T04:25:35.690Z,101017.53
2022-12-18T04:28:09.477Z,101020.13
2022-12-18T04:30:39.336Z,101026.83
2022-12-18T04:33:12.446Z,101024.82
2022-12-18T04:35:41.542Z,101029.08
2022-12-18T04:38:11.026Z,101030.98
2022-12-18T04:40:40.301Z,101037.02
2022-12-18T04:43:15.763Z,101044.36
2022-12-18T04:45:43.883Z,101045.44
2022-12-18T04:48:11.947Z,101049.89
2022-12-18T04:50:40.478Z,101052.27
2022-12-18T04:53:09.058Z,101055.44
2022-12-18T04:55:38.141Z,101062.36
2022-12-18T04:58:06.903Z,101065.46
2022-12-18T05:00:34.886Z,101069.41
2022-12-18T05:03:03.671Z,101075.02
2022-12-18T05:05:32.292Z,101072.18
2022-12-18T05:08:01.207Z,101076.02
2022-12-18T05:10:33.456Z,101075.93
2022-12-18T05:13:05.839Z,101080.40
2022-12-18T05:15:34.851Z,101085.78
2022-12-18T05:18:04.846Z,101092.80
2022-12-18T05:20:32.899Z,101092.55
2022-12-18T05:23:00.926Z,101099.01
2022-12-18T05:25:29.176Z,101099.95
2022-12-18T05:27:57.529Z,101096.80
2022-12-18T05:30:26.155Z,101098.23
2022-12-18T05:32:54.920Z,101101.38
2022-12-18T05:35:23.118Z,101106.80
2022-12-18T05:37:51.210Z,101108.96
2022-12-18T05:40:19.394Z,101114.07
2022-12-18T05:42:47.431Z,101116.86
2022-12-18T05:45:15.473Z,101112.16
2022-12-18T05:47:43.500Z,101110.45
2022-12-18T05:50:11.501Z,101106.02
2022-12-18T05:52:39.507Z,101110.67
2022-12-18T05:55:07.881Z,101115.30
2022-12-18T05:57:35.865Z,101118.17
2022-12-18T06:00:04.845Z,101118.15
2022-12-18T06:02:40.414Z,101122.49
2022-12-18T06:05:08.984Z,101125.77
2022-12-18T06:07:37.049Z,101127.17
2022-12-18T06:10:05.618Z,101130.67
2022-12-18T06:12:34.682Z,101131.29
2022-12-18T06:15:02.842Z,101138.30
2022-12-18T06:17:34.202Z,101141.83
2022-12-18T06:20:02.467Z,101142.29
2022-12-18T06:22:33.213Z,101144.08
2022-12-18T06:25:01.239Z,101148.56
2022-12-18T06:27:29.779Z,101152.10
2022-12-18T06:29:57.919Z,101161.88
2022-12-18T06:32:26.044Z,101163.54
2022-12-18T06:34:55.004Z,101166.09
2022-12-18T06:37:27.230Z,101169.34
2022-12-18T06:39:55.362Z,101168.70
2022-12-18T06:42:24.340Z,101170.15
2022-12-18T06:44:52.688Z,101176.80
2022-12-18T06:47:20.767Z,101185.27
2022-12-18T06:49:48.758Z,101192.63
2022-12-18T06:52:16.790Z,101198.70
2022-12-18T06:54:44.773Z,101202.69
2022-12-18T06:57:12.809Z,101204.35
2022-12-18T06:59:40.839Z,101203.45
2022-12-18T07:02:13.776Z,101208.94
2022-12-18T07:04:42.018Z,101211.86
2022-12-18T07:07:10.011Z,101218.73
2022-12-18T07:09:38.069Z,101224.56
2022-12-18T07:12:06.211Z,101232.08
2022-12-18T07:14:34.221Z,101230.20
2022-12-18T07:17:02.523Z,101238.09
2022-12-18T07:19:31.186Z,101236.50
2022-12-18T07:22:00.867Z,101242.17
2022-12-18T07:24:29.551Z,101242.83
2022-12-18T07:26:57.603Z,101244.65
2022-12-18T07:29:25.742Z,101252.20
2022-12-18T07:31:53.825Z,101258.03
2022-12-18T07:34:21.920Z,101260.27
2022-12-18T07:36:49.934Z,101260.08
2022-12-18T07:39:17.987Z,101262.30
2022-12-18T07:42:05.911Z,101270.46
2022-12-18T07:44:34.601Z,101273.23
2022-12-18T07:47:03.955Z,101274.76
2022-12-18T07:49:33.561Z,101275.60
2022-12-18T07:52:02.795Z,101281.60
2022-12-18T07:54:30.858Z,101282.65
2022-12-18T07:56:58.929Z,101288.06
2022-12-18T07:59:27.410Z,101288.90
2022-12-18T08:01:55.592Z,101292.31
2022-12-18T08:04:23.809Z,101295.89
2022-12-18T08:06:52.367Z,101300.61
2022-12-18T08:09:20.486Z,101302.98
2022-12-18T08:11:48.501Z,101302.65
2022-12-18T08:14:16.504Z,101302.95
2022-12-18T08:16:44.772Z,101307.15
2022-12-18T08:19:12.933Z,101310.46
2022-12-18T08:21:41.297Z,101311.74
2022-12-18T08:24:11.021Z,101316.39
2022-12-18T08:26:39.222Z,101315.16
2022-12-18T08:29:07.245Z,101314.50
2022-12-18T08:31:35.429Z,101319.77
2022-12-18T08:34:03.656Z,101322.27
2022-12-18T08:36:31.701Z,101321.14
2022-12-18T08:38:59.743Z,101330.62
2022-12-18T08:41:28.454Z,101336.29
2022-12-18T08:44:15.347Z,101337.44
2022-12-18T08:46:45.037Z,101337.99
2022-12-18T08:49:13.408Z,101335.33
2022-12-18T08:51:41.534Z,101334.92
2022-12-18T08:54:12.752Z,101337.59
2022-12-18T08:56:40.776Z,101340.31
2022-12-18T08:59:15.802Z,101336.33
2022-12-18T09:01:48.432Z,101334.09
2022-12-18T09:04:16.761Z,101335.39
2022-12-18T09:06:44.814Z,101337.73
2022-12-18T09:09:13.066Z,101337.66
2022-12-18T09:11:41.091Z,101340.03
2022-12-18T09:14:10.917Z,101343.53
2022-12-18T09:16:39.260Z,101343.55
2022-12-18T09:19:07.465Z,101349.21
2022-12-18T09:21:37.397Z,101350.21
2022-12-18T09:24:08.886Z,101349.92
2022-12-18T09:26:38.148Z,101349.16
2022-12-18T09:29:08.445Z,101349.81
2022-12-18T09:31:37.542Z,101352.80
2022-12-18T09:34:05.598Z,101352.11
2022-12-18T09:36:34.211Z,101349.05
2022-12-18T09:39:07.598Z,101350.61
2022-12-18T09:41:51.849Z,101350.71
2022-12-18T09:44:26.002Z,101353.86
2022-12-18T09:47:21.856Z,101353.15
2022-12-18T09:50:32.942Z,101357.13
2022-12-18T09:53:07.800Z,101366.73
2022-12-18T09:55:44.345Z,101365.29
2022-12-18T09:58:16.647Z,101365.30
2022-12-18T10:00:44.785Z,101372.83
2022-12-18T10:03:16.741Z,101373.92
2022-12-18T10:06:06.467Z,101370.98
2022-12-18T10:08:40.996Z,101368.29
2022-12-18T10:11:34.146Z,101371.27
2022-12-18T10:14:22.757Z,101368.64
2022-12-18T10:16:53.863Z,101371.31
2022-12-18T10:19:50.467Z,101372.26
2022-12-18T10:22:42.795Z,101374.11
2022-12-18T10:25:24.030Z,101373.60
2022-12-18T10:27:59.656Z,101374.32
2022-12-18T10:30:27.861Z,101368.70
2022-12-18T10:33:02.144Z,101367.17
2022-12-18T10:35:30.412Z,101370.02
2022-12-18T10:38:04.635Z,101371.17
2022-12-18T10:40:33.618Z,101379.20
2022-12-18T10:43:14.249Z,101386.15
2022-12-18T10:45:43.402Z,101381.89
2022-12-18T10:48:25.169Z,101382.93
2022-12-18T10:53:44.133Z,101380.19
2022-12-18T10:56:13.554Z,101378.05
2022-12-18T10:58:41.998Z,101374.94
2022-12-18T11:01:14.861Z,101382.66
2022-12-18T11:04:08.607Z,101382.49
2022-12-18T11:06:55.069Z,101374.47
2022-12-18T11:09:26.084Z,101370.92
2022-12-18T11:11:58.045Z,101369.70
2022-12-18T11:14:30.036Z,101370.96
2022-12-18T11:20:01.124Z,101366.53
2022-12-18T11:22:32.852Z,101367.61
2022-12-18T11:25:30.682Z,101366.53
2022-12-18T11:27:57.680Z,101366.91
2022-12-18T11:30:25.713Z,101368.68
2022-12-18T11:33:35.316Z,101374.59
2022-12-18T11:36:06.956Z,101379.25
2022-12-18T11:38:41.948Z,101381.65
2022-12-18T11:41:44.449Z,101383.58
2022-12-18T11:44:21.144Z,101384.52
2022-12-18T11:46:57.030Z,101385.64
2022-12-18T11:49:34.679Z,101384.10
2022-12-18T11:52:39.285Z,101388.41
2022-12-18T11:55:54.410Z,101391.27
2022-12-18T11:58:49.049Z,101390.56
2022-12-18T12:02:02.338Z,101386.60
2022-12-18T12:04:47.170Z,101386.10
2022-12-18T12:07:27.744Z,101383.36
2022-12-18T12:10:14.555Z,101387.20
2022-12-18T12:13:01.220Z,101387.40
2022-12-18T12:15:41.184Z,101389.34
2022-12-18T12:18:27.781Z,101385.52
2022-12-18T12:21:31.087Z,101386.10
2022-12-18T12:24:24.033Z,101394.39
2022-12-18T12:27:16.326Z,101399.08
2022-12-18T12:30:00.358Z,101400.63
2022-12-18T12:32:37.092Z,101408.17
2022-12-18T12:35:09.622Z,101405.60
2022-12-18T12:38:15.676Z,101403.73
2022-12-18T12:41:06.492Z,101402.95
2022-12-18T12:46:38.149Z,101405.61
2022-12-18T12:49:15.423Z,101410.48
2022-12-18T12:51:48.355Z,101410.97
2022-12-18T12:54:22.046Z,101414.91
2022-12-18T12:57:10.874Z,101419.14
2022-12-18T13:00:04.827Z,101424.27
2022-12-18T13:03:14.338Z,101431.23
2022-12-18T13:05:42.355Z,101437.02
2022-12-18T13:08:12.394Z,101438.05
2022-12-18T13:10:44.035Z,101437.99
2022-12-18T13:13:17.256Z,101441.83
2022-12-18T13:16:07.696Z,101443.30
2022-12-18T13:18:36.504Z,101438.11
2022-12-18T13:21:21.276Z,101443.26
2022-12-18T13:23:50.668Z,101455.24
2022-12-18T13:26:23.218Z,101459.67
2022-12-18T13:28:57.944Z,101467.95
2022-12-18T13:31:41.878Z,101471.81
2022-12-18T13:34:27.524Z,101475.55
2022-12-18T13:37:18.095Z,101482.91
2022-12-18T13:39:46.287Z,101489.50
2022-12-18T13:42:35.590Z,101493.10
2022-12-18T13:45:43.874Z,101496.92
2022-12-18T13:48:19.397Z,101501.17
2022-12-18T13:50:56.490Z,101495.95
2022-12-18T13:53:29.965Z,101495.91
2022-12-18T13:55:58.645Z,101501.19
2022-12-18T13:58:26.767Z,101491.98
2022-12-18T14:00:55.471Z,101500.04
2022-12-18T14:03:29.422Z,101506.09
2022-12-18T14:06:04.231Z,101508.92
2022-12-18T14:08:40.923Z,101507.85
2022-12-18T14:11:21.398Z,101505.70
2022-12-18T14:13:51.120Z,101504.33
2022-12-18T14:16:19.837Z,101509.05
2022-12-18T14:19:07.296Z,101505.37
2022-12-18T14:21:49.204Z,101504.11
2022-12-18T14:24:21.190Z,101503.69
2022-12-18T14:26:51.368Z,101504.68
2022-12-18T14:29:27.114Z,101509.11
2022-12-18T14:32:33.452Z,101515.08
2022-12-18T14:35:14.271Z,101518.70
2022-12-18T14:37:42.255Z,101523.16
2022-12-18T14:40:14.238Z,101531.86
2022-12-18T14:42:43.203Z,101531.21
2022-12-18T14:45:39.113Z,101528.16
2022-12-18T14:48:21.712Z,101526.84
2022-12-18T14:51:16.015Z,101525.92
2022-12-18T14:53:53.716Z,101524.08
2022-12-18T14:56:25.748Z,101520.73
2022-12-18T14:59:00.283Z,101526.71
2022-12-18T15:01:38.193Z,101528.60
2022-12-18T15:04:24.418Z,101531.85
2022-12-18T15:07:23.934Z,101540.89
2022-12-18T15:10:25.018Z,101544.09
2022-12-18T15:13:03.682Z,101553.55
2022-12-18T15:15:35.126Z,101557.27
2022-12-18T15:18:12.832Z,101557.75
2022-12-18T15:20:56.351Z,101558.71
2022-12-18T15:23:25.954Z,101560.59
2022-12-18T15:26:00.006Z,101554.27
2022-12-18T15:28:34.664Z,101550.73
2022-12-18T15:31:15.018Z,101550.34
2022-12-18T15:33:55.005Z,101552.27
2022-12-18T15:36:26.804Z,101556.23
2022-12-18T15:39:05.032Z,101555.77
2022-12-18T15:41:37.266Z,101557.41
2022-12-18T15:44:26.548Z,101561.66
2022-12-18T15:46:58.057Z,101561.33
2022-12-18T15:49:26.485Z,101560.71
2022-12-18T15:52:02.911Z,101561.78
2022-12-18T15:54:49.670Z,101563.75
2022-12-18T15:57:26.693Z,101565.40
2022-12-18T15:59:59.279Z,101571.20
2022-12-18T16:02:29.692Z,101579.41
2022-12-18T16:04:58.187Z,101583.04
2022-12-18T16:07:29.161Z,101582.65
2022-12-18T16:09:59.421Z,101586.18
2022-12-18T16:12:30.466Z,101586.48
2022-12-18T16:14:58.562Z,101590.10
2022-12-18T16:17:26.605Z,101591.77
2022-12-18T16:19:55.045Z,101593.77
2022-12-18T16:22:29.043Z,101592.27
2022-12-18T16:24:58.229Z,101594.08
2022-12-18T16:27:27.126Z,101597.22
2022-12-18T16:29:55.365Z,101598.02
2022-12-18T16:32:24.465Z,101599.55
2022-12-18T16:34:52.810Z,101599.80
2022-12-18T16:37:20.907Z,101596.40
2022-12-18T16:39:48.978Z,101597.08
2022-12-18T16:42:20.657Z,101600.98
2022-12-18T16:44:50.567Z,101602.61
2022-12-18T16:47:19.881Z,101605.52
2022-12-18T16:49:51.839Z,101616.55
2022-12-18T16:52:21.037Z,101620.73
2022-12-18T16:54:49.175Z,101626.56
2022-12-18T16:57:20.191Z,101633.48
2022-12-18T16:59:49.988Z,101632.97
2022-12-18T17:02:23.620Z,101631.61
2022-12-18T17:04:55.561Z,101628.58
2022-12-18T17:07:24.921Z,101630.50
2022-12-18T17:09:54.868Z,101631.94
2022-12-18T17:12:23.914Z,101632.23
2022-12-18T17:14:51.987Z,101631.30
2022-12-18T17:17:22.641Z,101628.94
2022-12-18T17:19:52.554Z,101636.66
2022-12-18T17:22:23.513Z,101635.58
2022-12-18T17:24:51.734Z,101634.41
2022-12-18T17:27:19.975Z,101634.63
2022-12-18T17:29:48.993Z,101630.71
2022-12-18T17:32:18.024Z,101631.24
2022-12-18T17:34:46.344Z,101629.69
2022-12-18T17:37:14.772Z,101625.38
2022-12-18T17:39:43.174Z,101629.38
2022-12-18T17:42:14.841Z,101636.43
2022-12-18T17:44:44.502Z,101638.73
2022-12-18T17:47:14.181Z,101643.17
2022-12-18T17:49:42.224Z,101640.98
2022-12-18T17:52:10.923Z,101642.44
2022-12-18T17:54:41.582Z,101645.75
2022-12-18T17:57:10.554Z,101647.77
2022-12-18T17:59:38.695Z,101656.98
2022-12-18T18:02:07.499Z,101656.00
2022-12-18T18:04:36.456Z,101660.35
2022-12-18T18:07:04.707Z,101662.79
2022-12-18T18:09:32.830Z,101657.22
2022-12-18T18:12:19.726Z,101655.61
2022-12-18T18:14:48.197Z,101653.54
2022-12-18T18:17:16.197Z,101648.30
2022-12-18T18:19:46.806Z,101642.44
2022-12-18T18:22:19.143Z,101632.70
2022-12-18T18:24:48.234Z,101621.64
2022-12-18T18:27:16.441Z,101616.23
2022-12-18T18:29:45.171Z,101620.19
2022-12-18T18:32:13.322Z,101626.02
2022-12-18T18:34:42.085Z,101616.69
2022-12-18T18:37:12.112Z,101605.25
2022-12-18T18:39:40.197Z,101602.92
2022-12-18T18:42:08.451Z,101612.42
2022-12-18T18:44:36.995Z,101613.46
2022-12-18T18:47:06.974Z,101614.45
2022-12-18T18:49:37.917Z,101613.02
2022-12-18T18:52:07.311Z,101615.98
2022-12-18T18:54:35.576Z,101619.40
2022-12-18T18:57:20.561Z,101620.31
2022-12-18T18:59:49.259Z,101618.36
2022-12-18T19:02:18.127Z,101623.20
2022-12-18T19:04:47.124Z,101631.62
2022-12-18T19:07:30.158Z,101638.30
2022-12-18T19:10:04.411Z,101645.25
2022-12-18T19:12:53.376Z,101653.58
2022-12-18T19:15:23.035Z,101647.63
2022-12-18T19:17:51.198Z,101651.89
2022-12-18T19:20:19.524Z,101652.14
2022-12-18T19:22:55.126Z,101660.02
2022-12-18T19:25:40.723Z,101661.83
2022-12-18T19:28:21.577Z,101662.24
2022-12-18T19:30:57.259Z,101658.90
2022-12-18T19:33:45.057Z,101657.84
2022-12-18T19:36:28.394Z,101664.02
2022-12-18T19:39:00.031Z,101666.16
2022-12-18T19:41:31.410Z,101661.38
2022-12-18T19:44:02.225Z,101656.55
2022-12-18T19:46:37.150Z,101654.89
2022-12-18T19:49:11.960Z,101657.08
2022-12-18T19:51:46.296Z,101655.35
2022-12-18T19:54:17.273Z,101657.38
2022-12-18T19:56:46.909Z,101662.14
2022-12-18T19:59:14.986Z,101666.45
2022-12-18T20:01:43.381Z,101675.17
2022-12-18T20:04:11.550Z,101684.48
2022-12-18T20:06:51.632Z,101680.91
2022-12-18T20:09:20.516Z,101683.95
2022-12-18T20:11:49.874Z,101688.22
2022-12-18T20:14:23.163Z,101679.61
2022-12-18T20:16:52.645Z,101678.50
2022-12-18T20:19:22.515Z,101679.75
2022-12-18T20:21:50.737Z,101687.19
2022-12-18T20:24:19.354Z,101690.84
2022-12-18T20:26:47.465Z,101691.66
2022-12-18T20:29:15.512Z,101691.56
2022-12-18T20:31:43.631Z,101693.02
2022-12-18T20:34:12.270Z,101702.42
2022-12-18T20:36:41.178Z,101707.89
2022-12-18T20:39:10.942Z,101714.71
2022-12-18T20:41:40.473Z,101715.30
2022-12-18T20:44:21.904Z,101715.65
2022-12-18T20:46:58.266Z,101716.52
2022-12-18T20:49:27.337Z,101714.66
2022-12-18T20:51:58.149Z,101720.26
2022-12-18T20:54:27.882Z,101721.05
2022-12-18T20:56:56.985Z,101723.81
2022-12-18T20:59:26.153Z,101724.30
2022-12-18T21:01:54.713Z,101719.91
2022-12-18T21:04:24.076Z,101723.50
2022-12-18T21:07:00.770Z,101719.11
2022-12-18T21:09:37.680Z,101711.73
2022-12-18T21:12:36.543Z,101705.33
2022-12-18T21:15:16.500Z,101703.95
2022-12-18T21:17:45.433Z,101699.71
2022-12-18T21:20:17.917Z,101696.63
2022-12-18T21:22:49.463Z,101695.01
2022-12-18T21:25:17.722Z,101691.71
2022-12-18T21:27:45.754Z,101693.38
2022-12-18T21:30:15.259Z,101694.48
2022-12-18T21:32:43.366Z,101684.80
2022-12-18T21:35:11.513Z,101677.89
2022-12-18T21:37:42.235Z,101677.05
2022-12-18T21:40:14.493Z,101671.79
2022-12-18T21:43:01.436Z,101667.83
2022-12-18T21:45:29.459Z,101662.50
2022-12-18T21:47:57.706Z,101657.14
2022-12-18T21:50:25.818Z,101646.80
2022-12-18T21:52:53.833Z,101642.30
2022-12-18T21:55:21.889Z,101637.58
2022-12-18T21:57:50.411Z,101635.95
2022-12-18T22:00:19.750Z,101640.55
2022-12-18T22:02:49.272Z,101639.45
2022-12-18T22:05:37.685Z,101639.90
2022-12-18T22:08:07.116Z,101641.75
2022-12-18T22:10:36.588Z,101641.10
2022-12-18T22:13:06.863Z,101641.88
2022-12-18T22:15:35.000Z,101640.98
2022-12-18T22:18:03.264Z,101642.83
2022-12-18T22:20:31.262Z,101646.40
2022-12-18T22:23:04.370Z,101635.88
2022-12-18T22:25:35.345Z,101630.31
2022-12-18T22:28:25.638Z,101624.86
2022-12-18T22:30:59.654Z,101618.60
2022-12-18T22:33:28.600Z,101614.39
2022-12-18T22:35:56.785Z,101611.61
2022-12-18T22:38:25.042Z,101620.09
2022-12-18T22:40:53.057Z,101616.58
2022-12-18T22:43:21.530Z,101609.52
2022-12-18T22:45:49.621Z,101611.19
2022-12-18T22:48:18.001Z,101610.05
2022-12-18T22:50:47.243Z,101612.06
2022-12-18T22:53:17.191Z,101608.14
2022-12-18T22:55:45.306Z,101606.36
2022-12-18T22:58:13.364Z,101608.55
2022-12-18T23:00:41.415Z,101612.02
2022-12-18T23:03:09.956Z,101607.30
2022-12-18T23:05:38.230Z,101603.02
2022-12-18T23:08:06.266Z,101601.97
2022-12-18T23:10:37.780Z,101605.05
2022-12-18T23:13:05.831Z,101614.64
2022-12-18T23:15:34.257Z,101618.96
2022-12-18T23:18:02.272Z,101619.17
2022-12-18T23:20:30.783Z,101616.52
2022-12-18T23:22:58.802Z,101610.80
2022-12-18T23:25:26.840Z,101611.09
2022-12-18T23:27:54.867Z,101607.14
2022-12-18T23:30:22.926Z,101599.92
2022-12-18T23:32:51.249Z,101599.32
2022-12-18T23:35:19.424Z,101607.76
2022-12-18T23:37:58.750Z,101608.67
2022-12-18T23:40:29.590Z,101605.43
2022-12-18T23:43:00.342Z,101602.94
2022-12-18T23:45:28.400Z,101600.92
2022-12-18T23:47:56.496Z,101597.09
2022-12-18T23:50:28.764Z,101591.66
2022-12-18T23:53:04.820Z,101591.05
2022-12-18T23:55:39.927Z,101598.75
2022-12-18T23:58:20.241Z,101595.88
